createdAt,value
2023-04-09T00:01:03.460Z,195.13
2023-04-09T00:03:29.955Z,168.03
2023-04-09T00:05:56.637Z,159.20
2023-04-09T00:08:26.211Z,153.93
2023-04-09T00:10:53.520Z,110.40
2023-04-09T00:13:25.452Z,79.23
2023-04-09T00:16:02.516Z,243.70
2023-04-09T00:18:28.988Z,282.50
2023-04-09T00:20:55.667Z,159.33
2023-04-09T00:23:22.174Z,134.40
2023-04-09T00:25:48.737Z,91.23
2023-04-09T00:28:15.885Z,178.30
2023-04-09T00:30:42.422Z,175.37
2023-04-09T00:33:08.866Z,158.83
2023-04-09T00:35:35.715Z,151.53
2023-04-09T00:38:02.213Z,188.23
2023-04-09T00:40:28.822Z,180.97
2023-04-09T00:42:55.507Z,136.13
2023-04-09T00:45:21.980Z,136.30
2023-04-09T00:47:48.600Z,128.90
2023-04-09T00:50:16.410Z,132.87
2023-04-09T00:52:42.992Z,131.10
2023-04-09T00:55:10.076Z,71.83
2023-04-09T00:57:36.529Z,72.97
2023-04-09T01:00:04.645Z,82.33
2023-04-09T01:02:31.417Z,68.37
2023-04-09T01:04:58.332Z,64.47
2023-04-09T01:07:31.562Z,61.53
2023-04-09T01:10:08.843Z,79.83
2023-04-09T01:13:06.313Z,87.20
2023-04-09T01:15:36.898Z,80.93
2023-04-09T01:18:09.848Z,70.07
2023-04-09T01:20:43.497Z,73.33
2023-04-09T01:23:27.633Z,65.07
2023-04-09T01:26:09.650Z,74.87
2023-04-09T01:28:43.782Z,104.73
2023-04-09T01:31:18.586Z,109.20
2023-04-09T01:33:45.822Z,86.70
2023-04-09T01:36:13.453Z,90.20
2023-04-09T01:38:41.861Z,102.53
2023-04-09T01:41:11.275Z,98.73
2023-04-09T01:43:38.368Z,94.57
2023-04-09T01:46:04.888Z,79.83
2023-04-09T01:48:31.883Z,78.93
2023-04-09T01:50:58.927Z,73.03
2023-04-09T01:53:28.369Z,69.73
2023-04-09T01:55:56.791Z,85.63
2023-04-09T01:58:24.969Z,100.27
2023-04-09T02:00:52.219Z,88.27
2023-04-09T02:03:23.933Z,91.40
2023-04-09T02:06:00.850Z,98.27
2023-04-09T02:08:28.166Z,83.27
2023-04-09T02:10:58.364Z,86.20
2023-04-09T02:13:27.222Z,90.17
2023-04-09T02:15:54.512Z,125.97
2023-04-09T02:18:31.062Z,115.90
2023-04-09T02:20:58.631Z,158.03
2023-04-09T02:23:26.048Z,133.57
2023-04-09T02:25:53.657Z,149.40
2023-04-09T02:28:20.217Z,244.70
2023-04-09T02:30:46.736Z,124.20
2023-04-09T02:33:13.259Z,128.03
2023-04-09T02:35:39.739Z,136.20
2023-04-09T02:38:06.361Z,229.57
2023-04-09T02:40:32.812Z,193.10
2023-04-09T02:42:59.445Z,229.10
2023-04-09T02:45:25.995Z,122.60
2023-04-09T02:47:52.555Z,203.77
2023-04-09T02:50:19.157Z,207.20
2023-04-09T02:52:47.470Z,214.17
2023-04-09T02:55:14.626Z,175.53
2023-04-09T02:57:41.561Z,139.83
2023-04-09T03:00:08.769Z,155.57
2023-04-09T03:02:35.497Z,146.33
2023-04-09T03:05:02.354Z,199.13
2023-04-09T03:07:28.877Z,228.57
2023-04-09T03:09:55.326Z,175.40
2023-04-09T03:12:21.777Z,168.13
2023-04-09T03:14:48.225Z,209.40
2023-04-09T03:17:14.712Z,221.77
2023-04-09T03:19:41.245Z,224.67
2023-04-09T03:22:07.796Z,208.60
2023-04-09T03:24:34.304Z,141.57
2023-04-09T03:27:00.784Z,212.70
2023-04-09T03:29:27.240Z,178.60
2023-04-09T03:31:53.720Z,203.43
2023-04-09T03:34:20.269Z,111.17
2023-04-09T03:36:46.737Z,114.50
2023-04-09T03:39:13.156Z,193.60
2023-04-09T03:41:39.615Z,185.10
2023-04-09T03:44:06.079Z,176.70
2023-04-09T03:46:32.599Z,179.57
2023-04-09T03:48:59.089Z,224.90
2023-04-09T03:51:25.581Z,160.50
2023-04-09T03:53:52.009Z,191.30
2023-04-09T03:56:18.488Z,142.57
2023-04-09T03:58:44.949Z,207.00
2023-04-09T04:01:11.463Z,147.10
2023-04-09T04:03:38.057Z,209.50
2023-04-09T04:06:04.710Z,167.37
2023-04-09T04:08:31.182Z,195.10
2023-04-09T04:11:03.803Z,171.30
2023-04-09T04:13:30.394Z,141.83
2023-04-09T04:15:56.889Z,125.47
2023-04-09T04:18:23.372Z,138.93
2023-04-09T04:20:49.844Z,143.50
2023-04-09T04:23:16.312Z,127.63
2023-04-09T04:25:42.836Z,143.70
2023-04-09T04:28:09.307Z,150.93
2023-04-09T04:30:35.838Z,104.03
2023-04-09T04:33:02.368Z,86.50
2023-04-09T04:35:28.942Z,105.17
2023-04-09T04:37:55.450Z,104.13
2023-04-09T04:40:22.008Z,100.87
2023-04-09T04:42:48.491Z,91.43
2023-04-09T04:45:14.989Z,82.13
2023-04-09T04:47:41.517Z,87.33
2023-04-09T04:50:08.886Z,98.13
2023-04-09T04:52:36.347Z,81.17
2023-04-09T04:55:02.806Z,75.67
2023-04-09T04:57:29.269Z,78.77
2023-04-09T04:59:55.732Z,81.07
2023-04-09T05:02:22.291Z,73.70
2023-04-09T05:04:48.787Z,61.43
2023-04-09T05:07:15.595Z,57.27
2023-04-09T05:09:42.946Z,84.20
2023-04-09T05:12:09.416Z,81.93
2023-04-09T05:14:35.845Z,74.27
2023-04-09T05:17:02.544Z,87.23
2023-04-09T05:19:29.160Z,72.07
2023-04-09T05:21:55.606Z,88.10
2023-04-09T05:24:22.050Z,84.67
2023-04-09T05:26:48.508Z,72.63
2023-04-09T05:29:15.037Z,68.93
2023-04-09T05:31:43.053Z,64.67
2023-04-09T05:34:09.612Z,64.33
2023-04-09T05:36:36.317Z,55.37
2023-04-09T05:39:02.977Z,53.90
2023-04-09T05:41:29.465Z,59.30
2023-04-09T05:43:55.938Z,57.80
2023-04-09T05:46:22.427Z,50.47
2023-04-09T05:48:48.949Z,53.53
2023-04-09T05:51:15.792Z,48.40
2023-04-09T05:53:42.836Z,50.20
2023-04-09T05:56:16.117Z,46.53
2023-04-09T05:58:43.181Z,51.00
2023-04-09T06:01:10.277Z,53.00
2023-04-09T06:03:36.978Z,50.70
2023-04-09T06:06:03.641Z,48.77
2023-04-09T06:08:30.216Z,49.83
2023-04-09T06:10:56.739Z,49.83
2023-04-09T06:13:23.204Z,44.13
2023-04-09T06:15:49.940Z,50.63
2023-04-09T06:18:16.521Z,48.33
2023-04-09T06:20:42.952Z,50.20
2023-04-09T06:23:09.401Z,47.73
2023-04-09T06:25:36.470Z,44.67
2023-04-09T06:28:03.259Z,50.77
2023-04-09T06:30:31.002Z,49.23
2023-04-09T06:32:57.666Z,43.70
2023-04-09T06:35:24.180Z,39.30
2023-04-09T06:37:50.907Z,43.60
2023-04-09T06:40:17.459Z,43.13
2023-04-09T06:42:43.964Z,43.77
2023-04-09T06:45:10.638Z,38.80
2023-04-09T06:47:37.245Z,39.30
2023-04-09T06:50:04.097Z,42.40
2023-04-09T06:52:30.666Z,43.70
2023-04-09T06:54:57.137Z,46.27
2023-04-09T06:57:23.701Z,42.93
2023-04-09T06:59:50.371Z,41.13
2023-04-09T07:02:17.036Z,39.63
2023-04-09T07:04:43.726Z,40.63
2023-04-09T07:07:10.593Z,43.17
2023-04-09T07:09:37.057Z,43.47
2023-04-09T07:12:03.588Z,48.03
2023-04-09T07:14:30.168Z,44.07
2023-04-09T07:16:56.595Z,47.40
2023-04-09T07:19:23.085Z,46.87
2023-04-09T07:21:49.510Z,43.53
2023-04-09T07:24:16.110Z,48.83
2023-04-09T07:26:42.776Z,51.17
2023-04-09T07:29:09.342Z,47.43
2023-04-09T07:31:36.253Z,47.40
2023-04-09T07:34:02.782Z,49.50
2023-04-09T07:36:29.260Z,52.80
2023-04-09T07:38:55.736Z,54.27
2023-04-09T07:41:22.259Z,54.87
2023-04-09T07:43:48.785Z,52.97
2023-04-09T07:46:20.350Z,54.47
2023-04-09T07:48:48.330Z,53.97
2023-04-09T07:51:15.417Z,58.60
2023-04-09T07:53:41.940Z,56.43
2023-04-09T07:56:08.478Z,52.10
2023-04-09T07:58:35.338Z,50.90
2023-04-09T08:01:01.779Z,52.03
2023-04-09T08:03:28.574Z,49.60
2023-04-09T08:05:55.232Z,47.87
2023-04-09T08:08:21.831Z,45.47
2023-04-09T08:10:48.282Z,47.20
2023-04-09T08:13:14.736Z,46.27
2023-04-09T08:15:41.517Z,47.37
2023-04-09T08:18:08.370Z,45.73
2023-04-09T08:20:34.890Z,44.33
2023-04-09T08:23:01.880Z,42.03
2023-04-09T08:25:28.601Z,38.70
2023-04-09T08:27:55.043Z,38.33
2023-04-09T08:30:21.585Z,41.60
2023-04-09T08:32:48.557Z,38.63
2023-04-09T08:35:15.949Z,40.27
2023-04-09T08:37:43.334Z,33.10
2023-04-09T08:40:10.125Z,30.20
2023-04-09T08:42:37.429Z,31.47
2023-04-09T08:45:05.441Z,31.40
2023-04-09T08:47:33.440Z,30.03
2023-04-09T08:49:59.975Z,26.90
2023-04-09T08:52:35.734Z,30.73
2023-04-09T08:55:02.406Z,27.90
2023-04-09T08:57:28.971Z,28.20
2023-04-09T08:59:55.561Z,24.40
2023-04-09T09:02:24.181Z,23.93
2023-04-09T09:04:50.949Z,22.17
2023-04-09T09:07:17.754Z,25.60
2023-04-09T09:10:02.489Z,24.97
2023-04-09T09:12:39.549Z,25.93
2023-04-09T09:15:25.563Z,29.27
2023-04-09T09:17:57.223Z,25.57
2023-04-09T09:20:24.593Z,25.60
2023-04-09T09:22:54.560Z,24.03
2023-04-09T09:25:26.115Z,34.83
2023-04-09T09:27:53.923Z,23.10
2023-04-09T09:30:25.992Z,19.87
2023-04-09T09:33:15.723Z,19.23
2023-04-09T09:35:54.400Z,21.63
2023-04-09T09:38:22.449Z,20.30
2023-04-09T09:40:49.580Z,19.30
2023-04-09T09:43:16.127Z,18.20
2023-04-09T09:45:43.892Z,19.03
2023-04-09T09:48:11.786Z,21.70
2023-04-09T09:50:41.806Z,21.37
2023-04-09T09:53:11.113Z,21.80
2023-04-09T09:55:49.075Z,19.87
2023-04-09T09:58:23.695Z,19.73
2023-04-09T10:00:51.611Z,19.87
2023-04-09T10:03:25.403Z,21.37
2023-04-09T10:05:53.508Z,19.93
2023-04-09T10:08:21.785Z,19.40
2023-04-09T10:10:48.622Z,19.13
2023-04-09T10:13:26.949Z,19.80
2023-04-09T10:15:53.925Z,19.40
2023-04-09T10:18:21.247Z,21.83
2023-04-09T10:21:02.051Z,19.50
2023-04-09T10:23:39.508Z,18.17
2023-04-09T10:26:06.378Z,17.87
2023-04-09T10:28:33.284Z,18.30
2023-04-09T10:30:59.894Z,17.47
2023-04-09T10:33:28.100Z,17.33
2023-04-09T10:35:55.891Z,16.30
2023-04-09T10:38:52.438Z,15.73
2023-04-09T10:41:29.650Z,17.63
2023-04-09T10:43:57.508Z,17.73
2023-04-09T10:46:35.059Z,16.20
2023-04-09T10:49:13.751Z,17.20
2023-04-09T10:51:41.878Z,15.40
2023-04-09T10:54:33.504Z,17.07
2023-04-09T10:57:09.132Z,16.87
2023-04-09T10:59:41.087Z,14.57
2023-04-09T11:02:09.513Z,14.97
2023-04-09T11:04:42.097Z,17.27
2023-04-09T11:07:09.018Z,14.30
2023-04-09T11:09:36.496Z,13.47
2023-04-09T11:12:03.783Z,17.03
2023-04-09T11:14:30.615Z,14.90
2023-04-09T11:16:57.154Z,16.33
2023-04-09T11:19:23.605Z,16.50
2023-04-09T11:21:50.283Z,15.33
2023-04-09T11:24:18.879Z,15.80
2023-04-09T11:26:45.965Z,14.83
2023-04-09T11:29:12.961Z,14.73
2023-04-09T11:31:39.456Z,14.20
2023-04-09T11:34:05.909Z,14.30
2023-04-09T11:36:35.835Z,15.23
2023-04-09T11:39:02.636Z,17.07
2023-04-09T11:41:38.821Z,18.10
2023-04-09T11:44:05.360Z,15.43
2023-04-09T11:46:35.675Z,18.53
2023-04-09T11:49:03.169Z,14.50
2023-04-09T11:51:33.228Z,17.73
2023-04-09T11:54:03.584Z,17.43
2023-04-09T11:56:31.223Z,18.63
2023-04-09T11:58:58.046Z,19.57
2023-04-09T12:01:24.710Z,20.47
2023-04-09T12:03:55.497Z,16.77
2023-04-09T12:06:23.050Z,17.50
2023-04-09T12:08:56.409Z,17.07
2023-04-09T12:11:28.756Z,16.20
2023-04-09T12:14:04.719Z,17.93
2023-04-09T12:16:32.626Z,16.77
2023-04-09T12:19:03.610Z,15.83
2023-04-09T12:21:53.066Z,17.13
2023-04-09T12:24:21.679Z,16.13
2023-04-09T12:26:48.854Z,18.77
2023-04-09T12:29:16.596Z,18.50
2023-04-09T12:31:43.655Z,16.83
2023-04-09T12:34:10.328Z,18.27
2023-04-09T12:36:38.591Z,16.53
2023-04-09T12:39:05.393Z,21.10
2023-04-09T12:41:31.875Z,16.03
2023-04-09T12:43:58.448Z,16.17
2023-04-09T12:46:25.902Z,18.83
2023-04-09T12:48:52.710Z,18.37
2023-04-09T12:51:19.305Z,16.90
2023-04-09T12:53:46.085Z,16.40
2023-04-09T12:56:12.554Z,14.63
2023-04-09T12:58:39.004Z,18.47
2023-04-09T13:01:06.020Z,19.43
2023-04-09T13:03:32.837Z,19.00
2023-04-09T13:05:59.477Z,17.07
2023-04-09T13:08:26.168Z,18.73
2023-04-09T13:10:52.759Z,15.60
2023-04-09T13:13:19.256Z,14.13
2023-04-09T13:15:46.310Z,15.60
2023-04-09T13:18:13.427Z,14.50
2023-04-09T13:20:40.068Z,17.63
2023-04-09T13:23:06.620Z,16.03
2023-04-09T13:25:33.053Z,17.70
2023-04-09T13:27:59.591Z,14.40
2023-04-09T13:30:26.060Z,17.67
2023-04-09T13:32:52.668Z,13.93
2023-04-09T13:35:19.270Z,14.07
2023-04-09T13:37:45.776Z,13.70
2023-04-09T13:40:12.589Z,15.57
2023-04-09T13:42:39.081Z,16.57
2023-04-09T13:45:06.403Z,15.30
2023-04-09T13:47:33.042Z,13.80
2023-04-09T13:49:59.535Z,15.03
2023-04-09T13:52:29.261Z,16.20
2023-04-09T13:54:56.224Z,14.53
2023-04-09T13:57:22.707Z,11.83
2023-04-09T13:59:49.705Z,12.40
2023-04-09T14:02:18.124Z,17.23
2023-04-09T14:04:44.807Z,11.30
2023-04-09T14:07:11.649Z,13.70
2023-04-09T14:09:38.074Z,13.30
2023-04-09T14:12:04.720Z,12.20
2023-04-09T14:14:31.241Z,14.73
2023-04-09T14:16:57.712Z,14.40
2023-04-09T14:19:24.249Z,11.07
2023-04-09T14:21:53.285Z,11.43
2023-04-09T14:24:22.927Z,16.53
2023-04-09T14:26:51.460Z,12.27
2023-04-09T14:29:17.895Z,13.30
2023-04-09T14:31:44.442Z,11.07
2023-04-09T14:34:10.970Z,13.40
2023-04-09T14:36:38.566Z,11.47
2023-04-09T14:39:05.160Z,12.87
2023-04-09T14:41:34.154Z,14.77
2023-04-09T14:44:00.782Z,12.23
2023-04-09T14:46:27.676Z,14.63
2023-04-09T14:48:54.475Z,13.30
2023-04-09T14:51:21.199Z,12.47
2023-04-09T14:53:47.656Z,12.93
2023-04-09T14:56:14.144Z,13.43
2023-04-09T14:58:40.713Z,13.67
2023-04-09T15:01:07.298Z,14.20
2023-04-09T15:03:33.875Z,15.17
2023-04-09T15:06:00.614Z,13.47
2023-04-09T15:08:27.178Z,15.97
2023-04-09T15:10:53.660Z,14.37
2023-04-09T15:13:20.207Z,16.57
2023-04-09T15:15:46.639Z,16.03
2023-04-09T15:18:13.148Z,14.17
2023-04-09T15:20:40.471Z,15.23
2023-04-09T15:23:07.052Z,15.57
2023-04-09T15:25:33.479Z,16.50
2023-04-09T15:28:00.026Z,15.57
2023-04-09T15:30:26.582Z,15.43
2023-04-09T15:32:53.249Z,15.07
2023-04-09T15:35:24.934Z,13.10
2023-04-09T15:37:51.923Z,14.07
2023-04-09T15:40:18.889Z,15.07
2023-04-09T15:42:45.368Z,13.80
2023-04-09T15:45:14.549Z,17.97
2023-04-09T15:47:41.042Z,13.57
2023-04-09T15:50:08.988Z,15.00
2023-04-09T15:52:35.718Z,14.80
2023-04-09T15:55:02.336Z,17.07
2023-04-09T15:57:28.930Z,19.83
2023-04-09T15:59:55.430Z,17.23
2023-04-09T16:02:23.472Z,19.27
2023-04-09T16:04:51.291Z,16.83
2023-04-09T16:07:17.799Z,16.80
2023-04-09T16:09:46.152Z,16.53
2023-04-09T16:12:12.784Z,15.93
2023-04-09T16:14:40.407Z,17.00
2023-04-09T16:17:07.072Z,19.90
2023-04-09T16:19:33.611Z,18.27
2023-04-09T16:22:00.076Z,21.97
2023-04-09T16:24:27.161Z,20.67
2023-04-09T16:26:53.596Z,18.30
2023-04-09T16:29:20.314Z,18.23
2023-04-09T16:31:46.874Z,16.27
2023-04-09T16:34:13.590Z,14.30
2023-04-09T16:36:41.562Z,15.80
2023-04-09T16:39:08.149Z,15.17
2023-04-09T16:41:36.961Z,16.10
2023-04-09T16:44:03.726Z,15.87
2023-04-09T16:46:30.321Z,17.33
2023-04-09T16:48:56.913Z,15.37
2023-04-09T16:51:23.372Z,17.20
2023-04-09T16:53:50.302Z,14.17
2023-04-09T16:56:17.339Z,20.27
2023-04-09T16:58:44.619Z,16.40
2023-04-09T17:01:11.074Z,15.23
2023-04-09T17:03:37.706Z,15.07
2023-04-09T17:06:04.842Z,19.33
2023-04-09T17:08:31.763Z,15.30
2023-04-09T17:11:04.260Z,17.43
2023-04-09T17:13:32.498Z,16.43
2023-04-09T17:15:58.994Z,18.10
2023-04-09T17:18:25.468Z,19.53
2023-04-09T17:20:52.219Z,20.60
2023-04-09T17:23:19.228Z,19.17
2023-04-09T17:25:46.529Z,22.13
2023-04-09T17:28:13.332Z,24.33
2023-04-09T17:30:39.902Z,20.83
2023-04-09T17:33:06.490Z,22.90
2023-04-09T17:35:33.087Z,24.53
2023-04-09T17:38:00.946Z,22.23
2023-04-09T17:40:28.104Z,23.90
2023-04-09T17:42:55.266Z,26.93
2023-04-09T17:45:21.791Z,26.30
2023-04-09T17:47:48.827Z,25.10
2023-04-09T17:50:15.479Z,27.63
2023-04-09T17:52:42.047Z,26.90
2023-04-09T17:55:11.677Z,26.50
2023-04-09T17:57:38.809Z,29.07
2023-04-09T18:00:05.988Z,32.63
2023-04-09T18:02:32.782Z,27.83
2023-04-09T18:05:00.567Z,26.47
2023-04-09T18:07:30.460Z,34.53
2023-04-09T18:09:57.093Z,32.20
2023-04-09T18:12:23.552Z,27.90
2023-04-09T18:14:50.531Z,25.13
2023-04-09T18:17:17.421Z,24.40
2023-04-09T18:19:44.035Z,24.77
2023-04-09T18:22:10.629Z,23.23
2023-04-09T18:24:37.405Z,26.93
2023-04-09T18:27:04.126Z,24.37
2023-04-09T18:29:31.447Z,23.23
2023-04-09T18:31:59.143Z,26.60
2023-04-09T18:34:25.871Z,25.23
2023-04-09T18:36:53.749Z,24.27
2023-04-09T18:39:22.784Z,23.93
2023-04-09T18:41:49.347Z,24.10
2023-04-09T18:44:16.470Z,25.03
2023-04-09T18:46:43.020Z,28.43
2023-04-09T18:49:09.982Z,28.23
2023-04-09T18:51:36.698Z,27.90
2023-04-09T18:54:03.295Z,25.20
2023-04-09T18:56:29.764Z,31.57
2023-04-09T18:58:56.700Z,27.30
2023-04-09T19:01:23.358Z,28.63
2023-04-09T19:03:50.030Z,29.00
2023-04-09T19:06:18.867Z,26.47
2023-04-09T19:08:46.405Z,30.47
2023-04-09T19:11:13.776Z,27.87
2023-04-09T19:13:40.517Z,27.93
2023-04-09T19:16:09.341Z,28.00
2023-04-09T19:18:37.363Z,30.17
2023-04-09T19:21:05.171Z,25.83
2023-04-09T19:23:34.044Z,28.93
2023-04-09T19:26:00.870Z,27.77
2023-04-09T19:28:27.612Z,27.33
2023-04-09T19:30:54.204Z,27.27
2023-04-09T19:33:21.686Z,28.23
2023-04-09T19:35:49.039Z,26.87
2023-04-09T19:38:16.175Z,28.17
2023-04-09T19:40:42.828Z,31.20
2023-04-09T19:43:09.870Z,26.70
2023-04-09T19:45:37.578Z,26.73
2023-04-09T19:48:05.456Z,28.10
2023-04-09T19:50:37.792Z,25.20
2023-04-09T19:53:05.930Z,27.57
2023-04-09T19:55:35.937Z,25.20
2023-04-09T19:58:03.245Z,27.90
2023-04-09T20:00:31.151Z,26.53
2023-04-09T20:02:57.861Z,29.83
2023-04-09T20:05:24.621Z,28.30
2023-04-09T20:07:52.597Z,25.40
2023-04-09T20:10:19.759Z,28.17
2023-04-09T20:12:50.530Z,31.50
2023-04-09T20:15:19.910Z,27.87
2023-04-09T20:17:48.121Z,26.73
2023-04-09T20:20:17.067Z,30.10
2023-04-09T20:22:47.397Z,28.27
2023-04-09T20:25:14.138Z,29.87
2023-04-09T20:27:40.690Z,51.63
2023-04-09T20:30:08.273Z,29.50
2023-04-09T20:32:36.925Z,30.07
2023-04-09T20:35:04.286Z,31.43
2023-04-09T20:37:30.880Z,27.37
2023-04-09T20:39:59.298Z,29.57
2023-04-09T20:42:25.760Z,27.23
2023-04-09T20:44:52.854Z,29.83
2023-04-09T20:47:21.020Z,32.17
2023-04-09T20:49:49.017Z,29.57
2023-04-09T20:52:15.526Z,30.00
2023-04-09T20:54:43.048Z,32.47
2023-04-09T20:57:11.050Z,31.27
2023-04-09T20:59:39.437Z,31.60
2023-04-09T21:02:06.074Z,31.33
2023-04-09T21:04:32.925Z,34.03
2023-04-09T21:06:59.405Z,29.57
2023-04-09T21:09:26.138Z,30.23
2023-04-09T21:11:52.682Z,32.07
2023-04-09T21:14:19.149Z,30.13
2023-04-09T21:16:45.824Z,33.97
2023-04-09T21:19:13.505Z,29.73
2023-04-09T21:21:40.515Z,32.77
2023-04-09T21:24:06.963Z,30.03
2023-04-09T21:26:45.241Z,34.10
2023-04-09T21:29:17.070Z,36.17
2023-04-09T21:31:43.580Z,31.10
2023-04-09T21:34:10.091Z,31.10
2023-04-09T21:36:39.258Z,33.13
2023-04-09T21:39:05.869Z,31.47
2023-04-09T21:41:32.348Z,31.00
2023-04-09T21:44:03.387Z,33.73
2023-04-09T21:46:29.910Z,33.60
2023-04-09T21:48:56.396Z,33.63
2023-04-09T21:51:22.881Z,31.77
2023-04-09T21:53:49.740Z,34.07
2023-04-09T21:56:16.196Z,34.33
2023-04-09T21:58:42.656Z,33.53
2023-04-09T22:01:18.812Z,33.77
2023-04-09T22:03:52.921Z,33.17
2023-04-09T22:06:19.754Z,31.27
2023-04-09T22:08:55.499Z,32.57
2023-04-09T22:11:28.124Z,39.10
2023-04-09T22:13:58.320Z,32.90
2023-04-09T22:16:25.233Z,34.40
2023-04-09T22:18:52.572Z,30.17
2023-04-09T22:21:19.259Z,38.03
2023-04-09T22:23:45.741Z,31.83
2023-04-09T22:26:12.241Z,31.77
2023-04-09T22:28:39.319Z,32.63
2023-04-09T22:31:06.514Z,37.27
2023-04-09T22:33:33.029Z,34.13
2023-04-09T22:35:59.791Z,33.50
2023-04-09T22:38:26.521Z,37.03
2023-04-09T22:40:55.702Z,36.60
2023-04-09T22:43:22.658Z,36.53
2023-04-09T22:45:51.979Z,38.93
2023-04-09T22:48:19.371Z,33.80
2023-04-09T22:50:46.153Z,39.73
2023-04-09T22:53:12.928Z,39.30
2023-04-09T22:55:39.479Z,35.37
2023-04-09T22:58:05.951Z,41.00
2023-04-09T23:00:32.405Z,39.73
2023-04-09T23:02:58.983Z,34.33
2023-04-09T23:05:25.703Z,41.23
2023-04-09T23:07:52.446Z,40.07
2023-04-09T23:10:19.233Z,40.17
2023-04-09T23:12:45.713Z,40.70
2023-04-09T23:15:12.235Z,36.03
2023-04-09T23:17:38.770Z,39.33
2023-04-09T23:20:06.820Z,39.80
2023-04-09T23:22:33.534Z,41.43
2023-04-09T23:24:59.979Z,38.10
2023-04-09T23:27:28.789Z,44.37
2023-04-09T23:29:56.409Z,39.23
2023-04-09T23:32:22.995Z,35.73
2023-04-09T23:34:50.324Z,36.60
2023-04-09T23:37:17.291Z,41.87
2023-04-09T23:39:44.003Z,42.60
2023-04-09T23:42:10.456Z,40.13
2023-04-09T23:44:36.875Z,42.50
2023-04-09T23:47:05.827Z,40.80
2023-04-09T23:49:32.453Z,52.57
2023-04-09T23:51:58.923Z,55.27
2023-04-09T23:54:25.366Z,49.97
2023-04-09T23:56:51.870Z,49.83
2023-04-09T23:59:18.699Z,45.07
